sensor_id;sensor_type;location;lat;lon;timestamp;P1;durP1;ratioP1;P2;durP2;ratioP2
77888;SDS011;67082;41.704;44.768;2023-01-28T00:01:05;70.93;;;27.13;;
77888;SDS011;67082;41.704;44.768;2023-01-28T00:03:34;65.45;;;25.65;;
77888;SDS011;67082;41.704;44.768;2023-01-28T00:06:04;68.85;;;26.38;;
77888;SDS011;67082;41.704;44.768;2023-01-28T00:08:34;73.03;;;28.60;;
77888;SDS011;67082;41.704;44.768;2023-01-28T00:11:04;69.20;;;26.50;;
77888;SDS011;67082;41.704;44.768;2023-01-28T00:13:33;72.32;;;27.77;;
77888;SDS011;67082;41.704;44.768;2023-01-28T00:16:03;69.15;;;27.77;;
77888;SDS011;67082;41.704;44.768;2023-01-28T00:18:35;62.75;;;26.15;;
77888;SDS011;67082;41.704;44.768;2023-01-28T00:21:05;73.85;;;26.35;;
77888;SDS011;67082;41.704;44.768;2023-01-28T00:23:35;62.33;;;26.00;;
77888;SDS011;67082;41.704;44.768;2023-01-28T00:26:07;72.32;;;25.90;;
77888;SDS011;67082;41.704;44.768;2023-01-28T00:28:42;62.42;;;25.35;;
77888;SDS011;67082;41.704;44.768;2023-01-28T00:31:15;67.93;;;25.75;;
77888;SDS011;67082;41.704;44.768;2023-01-28T00:33:46;68.28;;;25.90;;
77888;SDS011;67082;41.704;44.768;2023-01-28T00:36:16;70.70;;;26.17;;
77888;SDS011;67082;41.704;44.768;2023-01-28T00:38:52;73.15;;;26.38;;
77888;SDS011;67082;41.704;44.768;2023-01-28T00:41:22;74.18;;;27.13;;
77888;SDS011;67082;41.704;44.768;2023-01-28T00:43:53;70.10;;;27.63;;
77888;SDS011;67082;41.704;44.768;2023-01-28T00:46:23;69.43;;;27.63;;
77888;SDS011;67082;41.704;44.768;2023-01-28T00:48:53;67.68;;;27.20;;
77888;SDS011;67082;41.704;44.768;2023-01-28T00:51:21;70.82;;;26.45;;
77888;SDS011;67082;41.704;44.768;2023-01-28T00:53:50;78.70;;;27.13;;
77888;SDS011;67082;41.704;44.768;2023-01-28T00:56:20;69.78;;;27.23;;
77888;SDS011;67082;41.704;44.768;2023-01-28T00:58:48;69.38;;;26.15;;
77888;SDS011;67082;41.704;44.768;2023-01-28T01:01:19;75.40;;;26.92;;
77888;SDS011;67082;41.704;44.768;2023-01-28T01:03:52;70.75;;;26.80;;
77888;SDS011;67082;41.704;44.768;2023-01-28T01:06:31;73.68;;;26.77;;
77888;SDS011;67082;41.704;44.768;2023-01-28T01:09:02;71.90;;;26.70;;
77888;SDS011;67082;41.704;44.768;2023-01-28T01:11:36;74.57;;;27.25;;
77888;SDS011;67082;41.704;44.768;2023-01-28T01:14:04;69.47;;;26.13;;
77888;SDS011;67082;41.704;44.768;2023-01-28T01:16:34;60.58;;;25.45;;
77888;SDS011;67082;41.704;44.768;2023-01-28T01:19:02;70.40;;;25.00;;
77888;SDS011;67082;41.704;44.768;2023-01-28T01:21:31;65.28;;;24.70;;
77888;SDS011;67082;41.704;44.768;2023-01-28T01:24:00;69.80;;;25.00;;
77888;SDS011;67082;41.704;44.768;2023-01-28T01:26:29;59.38;;;23.50;;
77888;SDS011;67082;41.704;44.768;2023-01-28T01:28:58;62.85;;;24.83;;
77888;SDS011;67082;41.704;44.768;2023-01-28T01:31:28;64.03;;;24.80;;
77888;SDS011;67082;41.704;44.768;2023-01-28T01:33:59;57.92;;;23.42;;
77888;SDS011;67082;41.704;44.768;2023-01-28T01:36:30;66.97;;;25.67;;
77888;SDS011;67082;41.704;44.768;2023-01-28T01:38:58;69.47;;;25.50;;
77888;SDS011;67082;41.704;44.768;2023-01-28T01:41:28;68.88;;;25.70;;
77888;SDS011;67082;41.704;44.768;2023-01-28T01:43:58;73.88;;;24.63;;
77888;SDS011;67082;41.704;44.768;2023-01-28T01:49:10;63.90;;;24.25;;
77888;SDS011;67082;41.704;44.768;2023-01-28T01:51:50;57.65;;;21.35;;
77888;SDS011;67082;41.704;44.768;2023-01-28T01:54:23;64.60;;;23.45;;
77888;SDS011;67082;41.704;44.768;2023-01-28T01:56:56;57.22;;;20.75;;
77888;SDS011;67082;41.704;44.768;2023-01-28T01:59:27;48.85;;;19.58;;
77888;SDS011;67082;41.704;44.768;2023-01-28T02:02:00;53.38;;;19.38;;
77888;SDS011;67082;41.704;44.768;2023-01-28T02:04:32;53.45;;;18.95;;
77888;SDS011;67082;41.704;44.768;2023-01-28T02:07:10;49.25;;;19.00;;
77888;SDS011;67082;41.704;44.768;2023-01-28T02:09:41;51.67;;;19.75;;
77888;SDS011;67082;41.704;44.768;2023-01-28T02:12:11;51.38;;;19.50;;
77888;SDS011;67082;41.704;44.768;2023-01-28T02:14:52;53.63;;;20.08;;
77888;SDS011;67082;41.704;44.768;2023-01-28T02:17:23;52.20;;;19.55;;
77888;SDS011;67082;41.704;44.768;2023-01-28T02:19:57;54.92;;;19.88;;
77888;SDS011;67082;41.704;44.768;2023-01-28T02:25:16;56.57;;;20.80;;
77888;SDS011;67082;41.704;44.768;2023-01-28T02:30:39;50.05;;;18.45;;
77888;SDS011;67082;41.704;44.768;2023-01-28T02:33:17;50.83;;;18.48;;
77888;SDS011;67082;41.704;44.768;2023-01-28T02:35:54;52.50;;;18.83;;
77888;SDS011;67082;41.704;44.768;2023-01-28T02:38:40;47.65;;;17.35;;
77888;SDS011;67082;41.704;44.768;2023-01-28T02:41:18;47.55;;;18.10;;
77888;SDS011;67082;41.704;44.768;2023-01-28T02:43:52;44.38;;;16.70;;
77888;SDS011;67082;41.704;44.768;2023-01-28T02:49:14;41.70;;;17.23;;
77888;SDS011;67082;41.704;44.768;2023-01-28T02:54:41;51.92;;;18.40;;
77888;SDS011;67082;41.704;44.768;2023-01-28T03:00:50;41.53;;;16.83;;
77888;SDS011;67082;41.704;44.768;2023-01-28T03:03:32;45.95;;;18.42;;
77888;SDS011;67082;41.704;44.768;2023-01-28T03:06:20;44.10;;;18.17;;
77888;SDS011;67082;41.704;44.768;2023-01-28T03:08:55;40.97;;;17.00;;
77888;SDS011;67082;41.704;44.768;2023-01-28T03:11:54;47.42;;;17.85;;
77888;SDS011;67082;41.704;44.768;2023-01-28T03:14:48;51.90;;;18.55;;
77888;SDS011;67082;41.704;44.768;2023-01-28T03:17:40;50.80;;;18.60;;
77888;SDS011;67082;41.704;44.768;2023-01-28T03:20:30;49.60;;;17.92;;
77888;SDS011;67082;41.704;44.768;2023-01-28T03:23:30;49.70;;;18.15;;
77888;SDS011;67082;41.704;44.768;2023-01-28T03:26:22;47.20;;;18.23;;
77888;SDS011;67082;41.704;44.768;2023-01-28T03:29:12;48.33;;;19.08;;
77888;SDS011;67082;41.704;44.768;2023-01-28T03:32:03;48.20;;;18.85;;
77888;SDS011;67082;41.704;44.768;2023-01-28T03:34:52;52.78;;;18.88;;
77888;SDS011;67082;41.704;44.768;2023-01-28T03:37:40;52.15;;;19.58;;
77888;SDS011;67082;41.704;44.768;2023-01-28T03:40:16;49.85;;;19.63;;
77888;SDS011;67082;41.704;44.768;2023-01-28T03:42:45;48.80;;;19.17;;
77888;SDS011;67082;41.704;44.768;2023-01-28T03:45:33;51.28;;;19.33;;
77888;SDS011;67082;41.704;44.768;2023-01-28T03:48:04;49.28;;;18.27;;
77888;SDS011;67082;41.704;44.768;2023-01-28T03:50:33;51.92;;;19.27;;
77888;SDS011;67082;41.704;44.768;2023-01-28T03:53:01;49.47;;;19.42;;
77888;SDS011;67082;41.704;44.768;2023-01-28T03:55:52;47.97;;;19.15;;
77888;SDS011;67082;41.704;44.768;2023-01-28T03:58:21;54.72;;;20.17;;
77888;SDS011;67082;41.704;44.768;2023-01-28T04:00:54;51.38;;;19.15;;
77888;SDS011;67082;41.704;44.768;2023-01-28T04:03:22;50.30;;;18.67;;
77888;SDS011;67082;41.704;44.768;2023-01-28T04:06:00;45.80;;;18.85;;
77888;SDS011;67082;41.704;44.768;2023-01-28T04:08:49;50.38;;;19.55;;
77888;SDS011;67082;41.704;44.768;2023-01-28T04:11:39;45.67;;;17.67;;
77888;SDS011;67082;41.704;44.768;2023-01-28T04:14:08;51.47;;;19.95;;
77888;SDS011;67082;41.704;44.768;2023-01-28T04:17:01;52.60;;;18.98;;
77888;SDS011;67082;41.704;44.768;2023-01-28T04:19:30;51.38;;;19.00;;
77888;SDS011;67082;41.704;44.768;2023-01-28T04:22:06;56.60;;;19.97;;
77888;SDS011;67082;41.704;44.768;2023-01-28T04:24:40;54.13;;;20.50;;
77888;SDS011;67082;41.704;44.768;2023-01-28T04:27:10;51.90;;;19.60;;
77888;SDS011;67082;41.704;44.768;2023-01-28T04:29:40;55.67;;;20.77;;
77888;SDS011;67082;41.704;44.768;2023-01-28T04:32:38;51.05;;;19.20;;
77888;SDS011;67082;41.704;44.768;2023-01-28T04:35:23;50.47;;;18.83;;
77888;SDS011;67082;41.704;44.768;2023-01-28T04:38:02;54.35;;;20.00;;
77888;SDS011;67082;41.704;44.768;2023-01-28T04:43:18;47.90;;;19.35;;
77888;SDS011;67082;41.704;44.768;2023-01-28T04:45:51;55.03;;;19.90;;
77888;SDS011;67082;41.704;44.768;2023-01-28T04:48:39;53.72;;;19.73;;
77888;SDS011;67082;41.704;44.768;2023-01-28T04:51:31;47.80;;;18.27;;
77888;SDS011;67082;41.704;44.768;2023-01-28T04:54:26;45.47;;;17.85;;
77888;SDS011;67082;41.704;44.768;2023-01-28T04:56:58;50.55;;;19.67;;
77888;SDS011;67082;41.704;44.768;2023-01-28T04:59:26;45.38;;;18.13;;
77888;SDS011;67082;41.704;44.768;2023-01-28T05:01:55;49.15;;;18.40;;
77888;SDS011;67082;41.704;44.768;2023-01-28T05:04:23;45.33;;;18.20;;
77888;SDS011;67082;41.704;44.768;2023-01-28T05:06:52;47.40;;;18.67;;
77888;SDS011;67082;41.704;44.768;2023-01-28T05:09:25;51.15;;;18.05;;
77888;SDS011;67082;41.704;44.768;2023-01-28T05:11:53;45.97;;;18.08;;
77888;SDS011;67082;41.704;44.768;2023-01-28T05:14:22;45.30;;;17.33;;
77888;SDS011;67082;41.704;44.768;2023-01-28T05:16:59;45.97;;;17.73;;
77888;SDS011;67082;41.704;44.768;2023-01-28T05:19:28;45.45;;;17.92;;
77888;SDS011;67082;41.704;44.768;2023-01-28T05:21:56;46.40;;;16.83;;
77888;SDS011;67082;41.704;44.768;2023-01-28T05:24:31;49.00;;;18.37;;
77888;SDS011;67082;41.704;44.768;2023-01-28T05:27:00;46.47;;;17.85;;
77888;SDS011;67082;41.704;44.768;2023-01-28T05:29:29;47.90;;;17.83;;
77888;SDS011;67082;41.704;44.768;2023-01-28T05:31:58;43.80;;;17.25;;
77888;SDS011;67082;41.704;44.768;2023-01-28T05:34:26;45.13;;;18.70;;
77888;SDS011;67082;41.704;44.768;2023-01-28T05:36:56;47.25;;;18.08;;
77888;SDS011;67082;41.704;44.768;2023-01-28T05:39:31;52.53;;;18.20;;
77888;SDS011;67082;41.704;44.768;2023-01-28T05:41:59;51.65;;;18.88;;
77888;SDS011;67082;41.704;44.768;2023-01-28T05:44:28;46.17;;;17.58;;
77888;SDS011;67082;41.704;44.768;2023-01-28T05:47:26;48.78;;;18.65;;
77888;SDS011;67082;41.704;44.768;2023-01-28T05:50:05;50.38;;;18.77;;
77888;SDS011;67082;41.704;44.768;2023-01-28T05:52:42;48.83;;;20.02;;
77888;SDS011;67082;41.704;44.768;2023-01-28T05:55:22;51.75;;;19.60;;
77888;SDS011;67082;41.704;44.768;2023-01-28T05:57:50;47.35;;;19.35;;
77888;SDS011;67082;41.704;44.768;2023-01-28T06:00:22;58.35;;;20.80;;
77888;SDS011;67082;41.704;44.768;2023-01-28T06:02:51;52.38;;;18.75;;
77888;SDS011;67082;41.704;44.768;2023-01-28T06:05:20;53.03;;;20.02;;
77888;SDS011;67082;41.704;44.768;2023-01-28T06:07:48;48.13;;;19.55;;
77888;SDS011;67082;41.704;44.768;2023-01-28T06:10:18;53.90;;;20.90;;
77888;SDS011;67082;41.704;44.768;2023-01-28T06:12:47;48.47;;;20.10;;
77888;SDS011;67082;41.704;44.768;2023-01-28T06:18:14;52.60;;;20.50;;
77888;SDS011;67082;41.704;44.768;2023-01-28T06:20:44;57.03;;;22.52;;
77888;SDS011;67082;41.704;44.768;2023-01-28T06:23:12;58.78;;;21.88;;
77888;SDS011;67082;41.704;44.768;2023-01-28T06:25:41;54.40;;;23.08;;
77888;SDS011;67082;41.704;44.768;2023-01-28T06:28:11;57.15;;;21.98;;
77888;SDS011;67082;41.704;44.768;2023-01-28T06:30:40;51.13;;;20.92;;
77888;SDS011;67082;41.704;44.768;2023-01-28T06:33:08;57.08;;;22.20;;
77888;SDS011;67082;41.704;44.768;2023-01-28T06:35:36;58.00;;;23.00;;
77888;SDS011;67082;41.704;44.768;2023-01-28T06:38:04;58.38;;;22.50;;
77888;SDS011;67082;41.704;44.768;2023-01-28T06:40:32;57.83;;;23.52;;
77888;SDS011;67082;41.704;44.768;2023-01-28T06:43:00;58.33;;;23.45;;
77888;SDS011;67082;41.704;44.768;2023-01-28T06:45:30;59.28;;;23.02;;
77888;SDS011;67082;41.704;44.768;2023-01-28T06:47:59;62.03;;;23.40;;
77888;SDS011;67082;41.704;44.768;2023-01-28T06:50:32;64.22;;;24.38;;
77888;SDS011;67082;41.704;44.768;2023-01-28T06:53:01;59.22;;;23.55;;
77888;SDS011;67082;41.704;44.768;2023-01-28T06:55:29;58.17;;;22.52;;
77888;SDS011;67082;41.704;44.768;2023-01-28T06:57:57;53.83;;;22.55;;
77888;SDS011;67082;41.704;44.768;2023-01-28T07:00:27;61.25;;;22.30;;
77888;SDS011;67082;41.704;44.768;2023-01-28T07:02:56;54.88;;;21.55;;
77888;SDS011;67082;41.704;44.768;2023-01-28T07:05:25;60.78;;;22.55;;
77888;SDS011;67082;41.704;44.768;2023-01-28T07:07:53;56.70;;;23.15;;
77888;SDS011;67082;41.704;44.768;2023-01-28T07:10:21;56.25;;;22.55;;
77888;SDS011;67082;41.704;44.768;2023-01-28T07:12:52;53.92;;;22.88;;
77888;SDS011;67082;41.704;44.768;2023-01-28T07:15:20;57.67;;;23.88;;
77888;SDS011;67082;41.704;44.768;2023-01-28T07:17:48;59.55;;;24.80;;
77888;SDS011;67082;41.704;44.768;2023-01-28T07:20:17;61.00;;;23.50;;
77888;SDS011;67082;41.704;44.768;2023-01-28T07:22:46;58.97;;;24.27;;
77888;SDS011;67082;41.704;44.768;2023-01-28T07:25:15;60.17;;;24.13;;
77888;SDS011;67082;41.704;44.768;2023-01-28T07:27:49;71.15;;;25.95;;
77888;SDS011;67082;41.704;44.768;2023-01-28T07:30:19;68.18;;;26.48;;
77888;SDS011;67082;41.704;44.768;2023-01-28T07:32:52;64.68;;;26.10;;
77888;SDS011;67082;41.704;44.768;2023-01-28T07:35:27;66.70;;;27.35;;
77888;SDS011;67082;41.704;44.768;2023-01-28T07:37:56;66.85;;;27.17;;
77888;SDS011;67082;41.704;44.768;2023-01-28T07:40:26;75.00;;;27.25;;
77888;SDS011;67082;41.704;44.768;2023-01-28T07:42:55;68.63;;;27.42;;
77888;SDS011;67082;41.704;44.768;2023-01-28T07:45:26;66.28;;;26.60;;
77888;SDS011;67082;41.704;44.768;2023-01-28T07:47:58;66.32;;;26.25;;
77888;SDS011;67082;41.704;44.768;2023-01-28T07:50:31;76.68;;;29.17;;
77888;SDS011;67082;41.704;44.768;2023-01-28T07:53:05;82.95;;;31.42;;
77888;SDS011;67082;41.704;44.768;2023-01-28T07:55:35;82.75;;;31.30;;
77888;SDS011;67082;41.704;44.768;2023-01-28T07:58:10;83.47;;;30.85;;
77888;SDS011;67082;41.704;44.768;2023-01-28T08:00:39;77.35;;;32.03;;
77888;SDS011;67082;41.704;44.768;2023-01-28T08:03:12;80.50;;;32.63;;
77888;SDS011;67082;41.704;44.768;2023-01-28T08:05:45;86.50;;;35.53;;
77888;SDS011;67082;41.704;44.768;2023-01-28T08:08:24;91.35;;;34.50;;
77888;SDS011;67082;41.704;44.768;2023-01-28T08:10:54;96.82;;;36.90;;
77888;SDS011;67082;41.704;44.768;2023-01-28T08:13:21;88.75;;;38.10;;
77888;SDS011;67082;41.704;44.768;2023-01-28T08:15:53;79.90;;;34.72;;
77888;SDS011;67082;41.704;44.768;2023-01-28T08:18:21;86.97;;;36.17;;
77888;SDS011;67082;41.704;44.768;2023-01-28T08:20:53;91.78;;;37.38;;
77888;SDS011;67082;41.704;44.768;2023-01-28T08:23:25;87.55;;;37.90;;
77888;SDS011;67082;41.704;44.768;2023-01-28T08:25:56;84.78;;;36.95;;
77888;SDS011;67082;41.704;44.768;2023-01-28T08:28:26;90.05;;;36.38;;
77888;SDS011;67082;41.704;44.768;2023-01-28T08:30:54;91.15;;;36.97;;
77888;SDS011;67082;41.704;44.768;2023-01-28T08:33:25;87.53;;;37.42;;
77888;SDS011;67082;41.704;44.768;2023-01-28T08:35:54;90.35;;;36.85;;
77888;SDS011;67082;41.704;44.768;2023-01-28T08:38:22;94.60;;;39.00;;
77888;SDS011;67082;41.704;44.768;2023-01-28T08:40:50;101.32;;;37.88;;
77888;SDS011;67082;41.704;44.768;2023-01-28T08:43:22;88.82;;;36.35;;
77888;SDS011;67082;41.704;44.768;2023-01-28T08:45:50;98.95;;;37.25;;
77888;SDS011;67082;41.704;44.768;2023-01-28T08:48:19;91.43;;;36.80;;
77888;SDS011;67082;41.704;44.768;2023-01-28T08:50:48;93.38;;;37.00;;
77888;SDS011;67082;41.704;44.768;2023-01-28T08:53:19;93.60;;;38.05;;
77888;SDS011;67082;41.704;44.768;2023-01-28T08:55:47;93.93;;;37.05;;
77888;SDS011;67082;41.704;44.768;2023-01-28T08:58:17;87.45;;;36.10;;
77888;SDS011;67082;41.704;44.768;2023-01-28T09:00:47;95.03;;;35.35;;
77888;SDS011;67082;41.704;44.768;2023-01-28T09:03:17;80.95;;;35.50;;
77888;SDS011;67082;41.704;44.768;2023-01-28T09:05:47;88.90;;;35.38;;
77888;SDS011;67082;41.704;44.768;2023-01-28T09:08:16;91.82;;;34.63;;
77888;SDS011;67082;41.704;44.768;2023-01-28T09:10:45;78.57;;;32.42;;
77888;SDS011;67082;41.704;44.768;2023-01-28T09:13:14;87.25;;;33.08;;
77888;SDS011;67082;41.704;44.768;2023-01-28T09:15:42;86.60;;;34.15;;
77888;SDS011;67082;41.704;44.768;2023-01-28T09:18:11;82.05;;;33.50;;
77888;SDS011;67082;41.704;44.768;2023-01-28T09:20:39;82.15;;;33.40;;
77888;SDS011;67082;41.704;44.768;2023-01-28T09:23:07;76.13;;;33.40;;
77888;SDS011;67082;41.704;44.768;2023-01-28T09:25:36;85.80;;;34.28;;
77888;SDS011;67082;41.704;44.768;2023-01-28T09:28:04;80.22;;;33.47;;
77888;SDS011;67082;41.704;44.768;2023-01-28T09:30:33;86.13;;;34.67;;
77888;SDS011;67082;41.704;44.768;2023-01-28T09:33:04;86.57;;;36.03;;
77888;SDS011;67082;41.704;44.768;2023-01-28T09:35:34;90.50;;;35.72;;
77888;SDS011;67082;41.704;44.768;2023-01-28T09:38:03;86.40;;;35.45;;
77888;SDS011;67082;41.704;44.768;2023-01-28T09:40:36;82.50;;;35.63;;
77888;SDS011;67082;41.704;44.768;2023-01-28T09:46:01;84.82;;;35.80;;
77888;SDS011;67082;41.704;44.768;2023-01-28T09:48:38;88.20;;;36.88;;
77888;SDS011;67082;41.704;44.768;2023-01-28T09:51:15;86.97;;;35.65;;
77888;SDS011;67082;41.704;44.768;2023-01-28T09:54:12;87.68;;;37.53;;
77888;SDS011;67082;41.704;44.768;2023-01-28T09:56:42;92.70;;;38.47;;
77888;SDS011;67082;41.704;44.768;2023-01-28T09:59:18;87.00;;;37.80;;
77888;SDS011;67082;41.704;44.768;2023-01-28T10:01:52;96.95;;;37.97;;
77888;SDS011;67082;41.704;44.768;2023-01-28T10:07:31;92.80;;;38.42;;
77888;SDS011;67082;41.704;44.768;2023-01-28T10:13:02;89.80;;;38.55;;
77888;SDS011;67082;41.704;44.768;2023-01-28T10:15:47;99.38;;;40.10;;
77888;SDS011;67082;41.704;44.768;2023-01-28T10:18:33;95.30;;;38.22;;
77888;SDS011;67082;41.704;44.768;2023-01-28T10:21:07;96.75;;;38.90;;
77888;SDS011;67082;41.704;44.768;2023-01-28T10:23:45;95.32;;;38.85;;
77888;SDS011;67082;41.704;44.768;2023-01-28T10:26:36;100.03;;;37.78;;
77888;SDS011;67082;41.704;44.768;2023-01-28T10:29:18;100.82;;;39.45;;
77888;SDS011;67082;41.704;44.768;2023-01-28T10:32:03;96.40;;;39.63;;
77888;SDS011;67082;41.704;44.768;2023-01-28T10:34:42;97.53;;;38.67;;
77888;SDS011;67082;41.704;44.768;2023-01-28T10:37:11;91.50;;;40.00;;
77888;SDS011;67082;41.704;44.768;2023-01-28T10:39:42;97.43;;;40.67;;
77888;SDS011;67082;41.704;44.768;2023-01-28T10:42:30;100.13;;;40.35;;
77888;SDS011;67082;41.704;44.768;2023-01-28T10:45:07;93.28;;;38.95;;
77888;SDS011;67082;41.704;44.768;2023-01-28T10:47:44;100.47;;;42.50;;
77888;SDS011;67082;41.704;44.768;2023-01-28T10:50:16;101.60;;;41.83;;
77888;SDS011;67082;41.704;44.768;2023-01-28T10:52:55;95.97;;;40.10;;
77888;SDS011;67082;41.704;44.768;2023-01-28T10:55:27;106.00;;;41.63;;
77888;SDS011;67082;41.704;44.768;2023-01-28T10:58:01;96.85;;;38.67;;
77888;SDS011;67082;41.704;44.768;2023-01-28T11:00:35;98.97;;;39.97;;
77888;SDS011;67082;41.704;44.768;2023-01-28T11:03:15;99.05;;;40.22;;
77888;SDS011;67082;41.704;44.768;2023-01-28T11:05:52;95.95;;;38.13;;
77888;SDS011;67082;41.704;44.768;2023-01-28T11:08:22;96.70;;;40.13;;
77888;SDS011;67082;41.704;44.768;2023-01-28T11:10:57;104.68;;;40.30;;
77888;SDS011;67082;41.704;44.768;2023-01-28T11:13:27;100.25;;;39.90;;
77888;SDS011;67082;41.704;44.768;2023-01-28T11:16:00;97.57;;;41.83;;
77888;SDS011;67082;41.704;44.768;2023-01-28T11:21:26;100.07;;;39.85;;
77888;SDS011;67082;41.704;44.768;2023-01-28T11:24:00;87.70;;;37.72;;
77888;SDS011;67082;41.704;44.768;2023-01-28T11:26:43;103.47;;;37.85;;
77888;SDS011;67082;41.704;44.768;2023-01-28T11:29:29;92.38;;;37.67;;
77888;SDS011;67082;41.704;44.768;2023-01-28T11:31:59;93.40;;;36.65;;
77888;SDS011;67082;41.704;44.768;2023-01-28T11:34:29;87.70;;;37.90;;
77888;SDS011;67082;41.704;44.768;2023-01-28T11:37:11;81.90;;;34.53;;
77888;SDS011;67082;41.704;44.768;2023-01-28T11:39:43;88.07;;;37.30;;
77888;SDS011;67082;41.704;44.768;2023-01-28T11:42:19;89.80;;;36.03;;
77888;SDS011;67082;41.704;44.768;2023-01-28T11:44:48;89.93;;;36.58;;
77888;SDS011;67082;41.704;44.768;2023-01-28T11:47:20;88.10;;;37.78;;
77888;SDS011;67082;41.704;44.768;2023-01-28T11:56:18;86.28;;;37.25;;
77888;SDS011;67082;41.704;44.768;2023-01-28T11:59:26;94.90;;;40.13;;
77888;SDS011;67082;41.704;44.768;2023-01-28T12:02:08;94.07;;;39.80;;
77888;SDS011;67082;41.704;44.768;2023-01-28T12:10:24;96.50;;;39.58;;
77888;SDS011;67082;41.704;44.768;2023-01-28T12:18:56;96.05;;;39.83;;
77888;SDS011;67082;41.704;44.768;2023-01-28T12:39:07;99.93;;;39.13;;
77888;SDS011;67082;41.704;44.768;2023-01-28T12:44:51;88.60;;;39.20;;
77888;SDS011;67082;41.704;44.768;2023-01-28T12:47:30;96.57;;;40.42;;
77888;SDS011;67082;41.704;44.768;2023-01-28T12:52:49;99.95;;;41.60;;
77888;SDS011;67082;41.704;44.768;2023-01-28T12:57:54;96.63;;;42.28;;
77888;SDS011;67082;41.704;44.768;2023-01-28T13:06:12;104.33;;;41.33;;
77888;SDS011;67082;41.704;44.768;2023-01-28T13:08:46;104.22;;;40.35;;
77888;SDS011;67082;41.704;44.768;2023-01-28T13:11:16;120.20;;;41.75;;
77888;SDS011;67082;41.704;44.768;2023-01-28T13:13:46;95.25;;;40.35;;
77888;SDS011;67082;41.704;44.768;2023-01-28T13:16:15;109.70;;;41.50;;
77888;SDS011;67082;41.704;44.768;2023-01-28T13:18:47;95.78;;;39.90;;
77888;SDS011;67082;41.704;44.768;2023-01-28T13:26:51;95.47;;;40.33;;
77888;SDS011;67082;41.704;44.768;2023-01-28T13:31:56;107.75;;;41.40;;
77888;SDS011;67082;41.704;44.768;2023-01-28T13:37:28;102.20;;;40.95;;
77888;SDS011;67082;41.704;44.768;2023-01-28T13:42:35;108.18;;;40.83;;
77888;SDS011;67082;41.704;44.768;2023-01-28T13:45:19;107.63;;;44.08;;
77888;SDS011;67082;41.704;44.768;2023-01-28T13:47:51;106.35;;;44.13;;
77888;SDS011;67082;41.704;44.768;2023-01-28T13:50:28;112.53;;;44.75;;
77888;SDS011;67082;41.704;44.768;2023-01-28T13:53:12;100.65;;;43.25;;
77888;SDS011;67082;41.704;44.768;2023-01-28T13:55:48;103.88;;;42.67;;
77888;SDS011;67082;41.704;44.768;2023-01-28T14:06:56;100.35;;;40.63;;
77888;SDS011;67082;41.704;44.768;2023-01-28T14:17:44;97.72;;;38.25;;
77888;SDS011;67082;41.704;44.768;2023-01-28T14:20:37;100.28;;;38.88;;
77888;SDS011;67082;41.704;44.768;2023-01-28T14:23:19;91.60;;;39.63;;
77888;SDS011;67082;41.704;44.768;2023-01-28T14:25:52;93.05;;;39.20;;
77888;SDS011;67082;41.704;44.768;2023-01-28T14:31:36;96.38;;;38.15;;
77888;SDS011;67082;41.704;44.768;2023-01-28T14:36:54;90.63;;;38.63;;
77888;SDS011;67082;41.704;44.768;2023-01-28T14:39:26;89.10;;;39.85;;
77888;SDS011;67082;41.704;44.768;2023-01-28T14:41:59;97.78;;;39.33;;
77888;SDS011;67082;41.704;44.768;2023-01-28T14:44:30;93.30;;;38.97;;
77888;SDS011;67082;41.704;44.768;2023-01-28T14:55:52;91.65;;;40.03;;
77888;SDS011;67082;41.704;44.768;2023-01-28T14:59:14;99.40;;;38.92;;
77888;SDS011;67082;41.704;44.768;2023-01-28T15:01:22;95.75;;;38.90;;
77888;SDS011;67082;41.704;44.768;2023-01-28T15:03:52;91.45;;;39.20;;
77888;SDS011;67082;41.704;44.768;2023-01-28T15:06:22;98.13;;;38.15;;
77888;SDS011;67082;41.704;44.768;2023-01-28T15:08:52;103.85;;;40.38;;
77888;SDS011;67082;41.704;44.768;2023-01-28T15:11:32;99.22;;;40.05;;
77888;SDS011;67082;41.704;44.768;2023-01-28T15:14:07;87.65;;;38.83;;
77888;SDS011;67082;41.704;44.768;2023-01-28T15:16:45;94.88;;;40.03;;
77888;SDS011;67082;41.704;44.768;2023-01-28T15:19:16;93.35;;;39.13;;
77888;SDS011;67082;41.704;44.768;2023-01-28T15:21:55;92.03;;;38.13;;
77888;SDS011;67082;41.704;44.768;2023-01-28T15:24:27;92.28;;;39.95;;
77888;SDS011;67082;41.704;44.768;2023-01-28T15:26:59;92.50;;;40.10;;
77888;SDS011;67082;41.704;44.768;2023-01-28T15:29:30;102.70;;;39.75;;
77888;SDS011;67082;41.704;44.768;2023-01-28T15:32:02;94.03;;;39.05;;
77888;SDS011;67082;41.704;44.768;2023-01-28T15:34:32;89.85;;;38.90;;
77888;SDS011;67082;41.704;44.768;2023-01-28T15:37:00;97.57;;;40.33;;
77888;SDS011;67082;41.704;44.768;2023-01-28T15:39:29;91.03;;;37.10;;
77888;SDS011;67082;41.704;44.768;2023-01-28T15:41:59;93.68;;;38.97;;
77888;SDS011;67082;41.704;44.768;2023-01-28T15:44:32;86.57;;;37.25;;
77888;SDS011;67082;41.704;44.768;2023-01-28T15:47:16;87.97;;;38.25;;
77888;SDS011;67082;41.704;44.768;2023-01-28T15:49:50;100.00;;;40.42;;
77888;SDS011;67082;41.704;44.768;2023-01-28T15:52:33;91.55;;;39.97;;
77888;SDS011;67082;41.704;44.768;2023-01-28T15:55:04;101.72;;;39.38;;
77888;SDS011;67082;41.704;44.768;2023-01-28T15:57:33;96.97;;;38.75;;
77888;SDS011;67082;41.704;44.768;2023-01-28T16:00:03;95.60;;;39.45;;
77888;SDS011;67082;41.704;44.768;2023-01-28T16:02:42;93.50;;;38.20;;
77888;SDS011;67082;41.704;44.768;2023-01-28T16:11:06;95.28;;;39.67;;
77888;SDS011;67082;41.704;44.768;2023-01-28T16:13:40;93.38;;;40.53;;
77888;SDS011;67082;41.704;44.768;2023-01-28T16:16:13;104.10;;;43.08;;
77888;SDS011;67082;41.704;44.768;2023-01-28T16:18:46;95.78;;;41.20;;
77888;SDS011;67082;41.704;44.768;2023-01-28T16:21:27;93.57;;;39.58;;
77888;SDS011;67082;41.704;44.768;2023-01-28T16:24:05;101.57;;;41.10;;
77888;SDS011;67082;41.704;44.768;2023-01-28T16:29:34;98.53;;;40.67;;
77888;SDS011;67082;41.704;44.768;2023-01-28T16:32:02;103.80;;;42.10;;
77888;SDS011;67082;41.704;44.768;2023-01-28T16:34:30;108.90;;;41.60;;
77888;SDS011;67082;41.704;44.768;2023-01-28T16:36:58;91.53;;;40.15;;
77888;SDS011;67082;41.704;44.768;2023-01-28T16:39:28;103.80;;;41.78;;
77888;SDS011;67082;41.704;44.768;2023-01-28T16:41:57;101.53;;;41.03;;
77888;SDS011;67082;41.704;44.768;2023-01-28T16:44:27;108.43;;;42.53;;
77888;SDS011;67082;41.704;44.768;2023-01-28T16:46:57;119.13;;;48.58;;
77888;SDS011;67082;41.704;44.768;2023-01-28T16:49:26;111.47;;;50.75;;
77888;SDS011;67082;41.704;44.768;2023-01-28T16:51:54;111.05;;;46.20;;
77888;SDS011;67082;41.704;44.768;2023-01-28T16:54:23;101.82;;;42.72;;
77888;SDS011;67082;41.704;44.768;2023-01-28T16:56:53;108.97;;;44.78;;
77888;SDS011;67082;41.704;44.768;2023-01-28T16:59:24;104.78;;;43.88;;
77888;SDS011;67082;41.704;44.768;2023-01-28T17:01:52;106.50;;;44.17;;